Terminal Aerodrome Forecast
Issued by NWS Blacksburg, VA

Home | Current Version | Previous Version | Text Only | Print | Product List | Glossary On
Versions: 1 2 3 4 5 6 7 8 9 10 11 12 13 14 15 16 17 18 19 20 21 22 23 24 25 26 27 28 29 30 31 32 33 34 35 36 37 38 39 40 41 42 43 44 45 46 47 48 49 50
000
FTUS41 KRNK 041456 AAB
TAFBLF
TAF AMD
KBLF 041456Z 0415/0512 27008G17KT P6SM SCT011 BKN030
      TEMPO 0416/0417 3SM SHRA BR OVC011
     FM041800 28007KT P6SM VCSH SCT005 OVC015
     FM042100 28005KT P6SM SCT015 BKN035 OVC200
     FM050200 27004KT P6SM SCT007 OVC200
     FM050600 VRB04KT 4SM BR BKN004 OVC150
      TEMPO 0508/0512 1/2SM FG VV004=

USA.gov is the U.S. government's official web portal to all federal, state and local government web resources and services.